sensor_id;sensor_type;location;lat;lon;timestamp;P1;durP1;ratioP1;P2;durP2;ratioP2
54831;SDS011;40730;53.068;6.572;2023-03-20T00:01:16;15.05;;;7.25;;
54831;SDS011;40730;53.068;6.572;2023-03-20T00:03:44;14.35;;;7.30;;
54831;SDS011;40730;53.068;6.572;2023-03-20T00:08:45;17.08;;;7.65;;
54831;SDS011;40730;53.068;6.572;2023-03-20T00:14:13;13.00;;;7.22;;
54831;SDS011;40730;53.068;6.572;2023-03-20T00:16:42;14.52;;;6.85;;
54831;SDS011;40730;53.068;6.572;2023-03-20T00:19:17;16.45;;;6.45;;
54831;SDS011;40730;53.068;6.572;2023-03-20T00:21:44;15.40;;;6.05;;
54831;SDS011;40730;53.068;6.572;2023-03-20T00:24:12;14.90;;;6.97;;
54831;SDS011;40730;53.068;6.572;2023-03-20T00:26:39;18.52;;;6.63;;
54831;SDS011;40730;53.068;6.572;2023-03-20T00:29:05;16.50;;;6.10;;
54831;SDS011;40730;53.068;6.572;2023-03-20T00:31:35;16.13;;;7.25;;
54831;SDS011;40730;53.068;6.572;2023-03-20T00:34:04;20.63;;;7.55;;
54831;SDS011;40730;53.068;6.572;2023-03-20T00:36:35;18.05;;;6.50;;
54831;SDS011;40730;53.068;6.572;2023-03-20T00:39:00;15.80;;;6.30;;
54831;SDS011;40730;53.068;6.572;2023-03-20T00:41:43;14.60;;;6.22;;
54831;SDS011;40730;53.068;6.572;2023-03-20T00:44:26;14.18;;;5.90;;
54831;SDS011;40730;53.068;6.572;2023-03-20T00:47:00;20.73;;;7.13;;
54831;SDS011;40730;53.068;6.572;2023-03-20T00:49:29;15.55;;;7.03;;
54831;SDS011;40730;53.068;6.572;2023-03-20T00:51:56;12.93;;;6.15;;
54831;SDS011;40730;53.068;6.572;2023-03-20T00:54:22;16.00;;;6.47;;
54831;SDS011;40730;53.068;6.572;2023-03-20T00:57:02;21.20;;;7.68;;
54831;SDS011;40730;53.068;6.572;2023-03-20T00:59:41;14.48;;;6.65;;
54831;SDS011;40730;53.068;6.572;2023-03-20T01:02:25;14.68;;;6.72;;
54831;SDS011;40730;53.068;6.572;2023-03-20T01:04:52;17.23;;;6.00;;
54831;SDS011;40730;53.068;6.572;2023-03-20T01:07:20;18.73;;;6.78;;
54831;SDS011;40730;53.068;6.572;2023-03-20T01:09:46;13.20;;;6.30;;
54831;SDS011;40730;53.068;6.572;2023-03-20T01:12:11;18.95;;;7.68;;
54831;SDS011;40730;53.068;6.572;2023-03-20T01:14:39;14.98;;;7.60;;
54831;SDS011;40730;53.068;6.572;2023-03-20T01:17:07;13.68;;;6.50;;
54831;SDS011;40730;53.068;6.572;2023-03-20T01:19:41;18.95;;;9.05;;
54831;SDS011;40730;53.068;6.572;2023-03-20T01:22:07;18.58;;;7.05;;
54831;SDS011;40730;53.068;6.572;2023-03-20T01:24:33;15.02;;;7.25;;
54831;SDS011;40730;53.068;6.572;2023-03-20T01:26:59;17.08;;;7.63;;
54831;SDS011;40730;53.068;6.572;2023-03-20T01:29:28;17.15;;;8.02;;
54831;SDS011;40730;53.068;6.572;2023-03-20T01:31:54;14.13;;;7.47;;
54831;SDS011;40730;53.068;6.572;2023-03-20T01:34:20;21.38;;;7.55;;
54831;SDS011;40730;53.068;6.572;2023-03-20T01:36:50;19.88;;;8.07;;
54831;SDS011;40730;53.068;6.572;2023-03-20T01:39:19;22.02;;;8.70;;
54831;SDS011;40730;53.068;6.572;2023-03-20T01:41:48;16.80;;;7.72;;
54831;SDS011;40730;53.068;6.572;2023-03-20T01:44:29;24.20;;;7.95;;
54831;SDS011;40730;53.068;6.572;2023-03-20T01:46:57;23.20;;;9.00;;
54831;SDS011;40730;53.068;6.572;2023-03-20T01:51:50;15.70;;;8.73;;
54831;SDS011;40730;53.068;6.572;2023-03-20T01:54:17;20.85;;;8.43;;
54831;SDS011;40730;53.068;6.572;2023-03-20T01:56:48;19.30;;;9.27;;
54831;SDS011;40730;53.068;6.572;2023-03-20T01:59:35;18.67;;;8.57;;
54831;SDS011;40730;53.068;6.572;2023-03-20T02:02:11;22.67;;;7.93;;
54831;SDS011;40730;53.068;6.572;2023-03-20T02:04:41;20.08;;;8.57;;
54831;SDS011;40730;53.068;6.572;2023-03-20T02:07:10;22.50;;;8.82;;
54831;SDS011;40730;53.068;6.572;2023-03-20T02:09:40;22.35;;;8.63;;
54831;SDS011;40730;53.068;6.572;2023-03-20T02:12:06;25.98;;;8.52;;
54831;SDS011;40730;53.068;6.572;2023-03-20T02:14:32;28.27;;;7.82;;
54831;SDS011;40730;53.068;6.572;2023-03-20T02:16:59;18.80;;;7.88;;
54831;SDS011;40730;53.068;6.572;2023-03-20T02:19:30;18.92;;;7.90;;
54831;SDS011;40730;53.068;6.572;2023-03-20T02:28:21;19.08;;;8.18;;
54831;SDS011;40730;53.068;6.572;2023-03-20T02:34:12;21.58;;;7.38;;
54831;SDS011;40730;53.068;6.572;2023-03-20T02:36:48;17.77;;;6.53;;
54831;SDS011;40730;53.068;6.572;2023-03-20T02:45:30;15.98;;;7.32;;
54831;SDS011;40730;53.068;6.572;2023-03-20T02:50:50;19.17;;;8.70;;
54831;SDS011;40730;53.068;6.572;2023-03-20T02:56:11;24.30;;;10.65;;
54831;SDS011;40730;53.068;6.572;2023-03-20T02:58:50;20.10;;;9.20;;
54831;SDS011;40730;53.068;6.572;2023-03-20T03:01:27;20.02;;;10.13;;
54831;SDS011;40730;53.068;6.572;2023-03-20T03:04:02;28.50;;;9.65;;
54831;SDS011;40730;53.068;6.572;2023-03-20T03:06:34;26.58;;;10.00;;
54831;SDS011;40730;53.068;6.572;2023-03-20T03:09:03;21.17;;;9.93;;
54831;SDS011;40730;53.068;6.572;2023-03-20T03:11:48;22.45;;;10.60;;
54831;SDS011;40730;53.068;6.572;2023-03-20T03:15:00;22.48;;;11.38;;
54831;SDS011;40730;53.068;6.572;2023-03-20T03:17:17;21.50;;;10.73;;
54831;SDS011;40730;53.068;6.572;2023-03-20T03:19:46;24.00;;;10.68;;
54831;SDS011;40730;53.068;6.572;2023-03-20T03:22:17;26.88;;;10.85;;
54831;SDS011;40730;53.068;6.572;2023-03-20T03:24:48;25.83;;;10.65;;
54831;SDS011;40730;53.068;6.572;2023-03-20T03:27:20;24.27;;;10.60;;
54831;SDS011;40730;53.068;6.572;2023-03-20T03:29:59;26.95;;;12.38;;
54831;SDS011;40730;53.068;6.572;2023-03-20T03:32:32;24.25;;;11.85;;
54831;SDS011;40730;53.068;6.572;2023-03-20T03:35:00;27.52;;;10.82;;
54831;SDS011;40730;53.068;6.572;2023-03-20T03:37:44;23.10;;;10.52;;
54831;SDS011;40730;53.068;6.572;2023-03-20T03:42:48;25.38;;;10.77;;
54831;SDS011;40730;53.068;6.572;2023-03-20T03:47:52;20.25;;;12.02;;
54831;SDS011;40730;53.068;6.572;2023-03-20T03:50:30;23.83;;;11.35;;
54831;SDS011;40730;53.068;6.572;2023-03-20T03:53:12;21.08;;;11.65;;
54831;SDS011;40730;53.068;6.572;2023-03-20T03:55:42;21.40;;;10.18;;
54831;SDS011;40730;53.068;6.572;2023-03-20T04:00:40;20.15;;;9.95;;
54831;SDS011;40730;53.068;6.572;2023-03-20T04:03:08;20.00;;;9.98;;
54831;SDS011;40730;53.068;6.572;2023-03-20T04:05:35;19.15;;;9.70;;
54831;SDS011;40730;53.068;6.572;2023-03-20T04:08:05;24.75;;;9.80;;
54831;SDS011;40730;53.068;6.572;2023-03-20T04:10:31;25.98;;;10.02;;
54831;SDS011;40730;53.068;6.572;2023-03-20T04:12:57;17.23;;;9.82;;
54831;SDS011;40730;53.068;6.572;2023-03-20T04:15:23;20.55;;;10.13;;
54831;SDS011;40730;53.068;6.572;2023-03-20T04:17:51;21.65;;;8.88;;
54831;SDS011;40730;53.068;6.572;2023-03-20T04:20:17;19.67;;;9.40;;
54831;SDS011;40730;53.068;6.572;2023-03-20T04:22:43;15.38;;;8.30;;
54831;SDS011;40730;53.068;6.572;2023-03-20T04:25:17;24.65;;;9.98;;
54831;SDS011;40730;53.068;6.572;2023-03-20T04:27:45;15.32;;;8.68;;
54831;SDS011;40730;53.068;6.572;2023-03-20T04:30:11;19.42;;;9.63;;
54831;SDS011;40730;53.068;6.572;2023-03-20T04:32:37;17.02;;;8.65;;
54831;SDS011;40730;53.068;6.572;2023-03-20T04:35:03;18.65;;;8.88;;
54831;SDS011;40730;53.068;6.572;2023-03-20T04:37:29;20.23;;;9.10;;
54831;SDS011;40730;53.068;6.572;2023-03-20T04:39:54;15.20;;;8.85;;
54831;SDS011;40730;53.068;6.572;2023-03-20T04:42:20;16.95;;;7.38;;
54831;SDS011;40730;53.068;6.572;2023-03-20T04:44:45;14.82;;;8.05;;
54831;SDS011;40730;53.068;6.572;2023-03-20T04:47:11;16.52;;;7.50;;
54831;SDS011;40730;53.068;6.572;2023-03-20T04:49:37;14.00;;;6.93;;
54831;SDS011;40730;53.068;6.572;2023-03-20T04:52:02;15.05;;;7.72;;
54831;SDS011;40730;53.068;6.572;2023-03-20T04:54:28;14.82;;;7.68;;
54831;SDS011;40730;53.068;6.572;2023-03-20T04:56:53;13.35;;;6.15;;
54831;SDS011;40730;53.068;6.572;2023-03-20T04:59:19;14.40;;;6.93;;
54831;SDS011;40730;53.068;6.572;2023-03-20T05:01:45;12.90;;;7.22;;
54831;SDS011;40730;53.068;6.572;2023-03-20T05:04:10;15.73;;;6.88;;
54831;SDS011;40730;53.068;6.572;2023-03-20T05:06:36;16.00;;;6.05;;
54831;SDS011;40730;53.068;6.572;2023-03-20T05:09:02;14.88;;;6.53;;
54831;SDS011;40730;53.068;6.572;2023-03-20T05:11:28;13.50;;;6.40;;
54831;SDS011;40730;53.068;6.572;2023-03-20T05:13:54;11.45;;;6.00;;
54831;SDS011;40730;53.068;6.572;2023-03-20T05:16:19;17.20;;;7.13;;
54831;SDS011;40730;53.068;6.572;2023-03-20T05:18:45;12.77;;;5.97;;
54831;SDS011;40730;53.068;6.572;2023-03-20T05:21:11;13.98;;;6.40;;
54831;SDS011;40730;53.068;6.572;2023-03-20T05:23:36;12.35;;;6.40;;
54831;SDS011;40730;53.068;6.572;2023-03-20T05:26:02;16.38;;;6.40;;
54831;SDS011;40730;53.068;6.572;2023-03-20T05:28:28;13.15;;;6.43;;
54831;SDS011;40730;53.068;6.572;2023-03-20T05:30:54;18.92;;;6.85;;
54831;SDS011;40730;53.068;6.572;2023-03-20T05:33:19;14.07;;;6.65;;
54831;SDS011;40730;53.068;6.572;2023-03-20T05:35:45;13.77;;;7.43;;
54831;SDS011;40730;53.068;6.572;2023-03-20T05:38:10;13.85;;;7.32;;
54831;SDS011;40730;53.068;6.572;2023-03-20T05:40:36;12.52;;;7.18;;
54831;SDS011;40730;53.068;6.572;2023-03-20T05:43:02;15.63;;;6.93;;
54831;SDS011;40730;53.068;6.572;2023-03-20T05:45:28;19.40;;;7.28;;
54831;SDS011;40730;53.068;6.572;2023-03-20T05:47:54;15.32;;;6.95;;
54831;SDS011;40730;53.068;6.572;2023-03-20T05:50:19;17.63;;;7.80;;
54831;SDS011;40730;53.068;6.572;2023-03-20T05:52:46;19.27;;;8.25;;
54831;SDS011;40730;53.068;6.572;2023-03-20T05:55:12;16.98;;;8.50;;
54831;SDS011;40730;53.068;6.572;2023-03-20T05:57:38;11.48;;;7.82;;
54831;SDS011;40730;53.068;6.572;2023-03-20T06:00:04;21.40;;;9.77;;
54831;SDS011;40730;53.068;6.572;2023-03-20T06:02:30;15.82;;;9.18;;
54831;SDS011;40730;53.068;6.572;2023-03-20T06:04:56;18.25;;;8.75;;
54831;SDS011;40730;53.068;6.572;2023-03-20T06:07:22;19.38;;;9.57;;
54831;SDS011;40730;53.068;6.572;2023-03-20T06:09:48;22.10;;;10.02;;
54831;SDS011;40730;53.068;6.572;2023-03-20T06:12:14;20.23;;;9.50;;
54831;SDS011;40730;53.068;6.572;2023-03-20T06:14:40;19.10;;;9.93;;
54831;SDS011;40730;53.068;6.572;2023-03-20T06:17:06;22.00;;;10.50;;
54831;SDS011;40730;53.068;6.572;2023-03-20T06:19:31;17.42;;;9.55;;
54831;SDS011;40730;53.068;6.572;2023-03-20T06:21:58;20.70;;;9.95;;
54831;SDS011;40730;53.068;6.572;2023-03-20T06:24:23;17.60;;;8.52;;
54831;SDS011;40730;53.068;6.572;2023-03-20T06:26:49;18.50;;;9.80;;
54831;SDS011;40730;53.068;6.572;2023-03-20T06:29:15;18.15;;;9.85;;
54831;SDS011;40730;53.068;6.572;2023-03-20T06:31:40;19.52;;;9.27;;
54831;SDS011;40730;53.068;6.572;2023-03-20T06:34:06;17.45;;;8.88;;
54831;SDS011;40730;53.068;6.572;2023-03-20T06:36:32;19.50;;;9.45;;
54831;SDS011;40730;53.068;6.572;2023-03-20T06:38:57;13.80;;;9.00;;
54831;SDS011;40730;53.068;6.572;2023-03-20T06:41:23;17.85;;;8.95;;
54831;SDS011;40730;53.068;6.572;2023-03-20T06:43:49;17.20;;;9.27;;
54831;SDS011;40730;53.068;6.572;2023-03-20T06:46:15;19.23;;;9.32;;
54831;SDS011;40730;53.068;6.572;2023-03-20T06:48:40;17.45;;;9.52;;
54831;SDS011;40730;53.068;6.572;2023-03-20T06:51:06;14.73;;;8.88;;
54831;SDS011;40730;53.068;6.572;2023-03-20T06:53:32;17.23;;;9.52;;
54831;SDS011;40730;53.068;6.572;2023-03-20T06:55:57;18.38;;;8.82;;
54831;SDS011;40730;53.068;6.572;2023-03-20T06:58:23;16.90;;;9.27;;
54831;SDS011;40730;53.068;6.572;2023-03-20T07:00:49;17.90;;;9.45;;
54831;SDS011;40730;53.068;6.572;2023-03-20T07:03:15;15.27;;;9.02;;
54831;SDS011;40730;53.068;6.572;2023-03-20T07:05:41;16.17;;;8.50;;
54831;SDS011;40730;53.068;6.572;2023-03-20T07:08:07;14.95;;;8.85;;
54831;SDS011;40730;53.068;6.572;2023-03-20T07:10:33;18.00;;;8.65;;
54831;SDS011;40730;53.068;6.572;2023-03-20T07:12:59;17.05;;;9.18;;
54831;SDS011;40730;53.068;6.572;2023-03-20T07:15:25;15.77;;;9.73;;
54831;SDS011;40730;53.068;6.572;2023-03-20T07:17:51;14.57;;;8.75;;
54831;SDS011;40730;53.068;6.572;2023-03-20T07:20:17;15.00;;;9.02;;
54831;SDS011;40730;53.068;6.572;2023-03-20T07:22:43;17.42;;;8.63;;
54831;SDS011;40730;53.068;6.572;2023-03-20T07:25:09;19.08;;;9.48;;
54831;SDS011;40730;53.068;6.572;2023-03-20T07:27:35;17.08;;;8.50;;
54831;SDS011;40730;53.068;6.572;2023-03-20T07:30:02;18.15;;;9.60;;
54831;SDS011;40730;53.068;6.572;2023-03-20T07:32:28;14.55;;;9.15;;
54831;SDS011;40730;53.068;6.572;2023-03-20T07:34:54;16.95;;;8.63;;
54831;SDS011;40730;53.068;6.572;2023-03-20T07:37:20;15.48;;;8.35;;
54831;SDS011;40730;53.068;6.572;2023-03-20T07:39:45;18.50;;;8.20;;
54831;SDS011;40730;53.068;6.572;2023-03-20T07:42:11;17.17;;;8.45;;
54831;SDS011;40730;53.068;6.572;2023-03-20T07:44:37;14.65;;;8.02;;
54831;SDS011;40730;53.068;6.572;2023-03-20T07:47:03;16.50;;;9.35;;
54831;SDS011;40730;53.068;6.572;2023-03-20T07:49:30;16.55;;;8.60;;
54831;SDS011;40730;53.068;6.572;2023-03-20T07:51:56;15.20;;;8.27;;
54831;SDS011;40730;53.068;6.572;2023-03-20T07:54:21;19.10;;;9.23;;
54831;SDS011;40730;53.068;6.572;2023-03-20T07:56:47;16.42;;;8.35;;
54831;SDS011;40730;53.068;6.572;2023-03-20T07:59:15;20.45;;;10.38;;
54831;SDS011;40730;53.068;6.572;2023-03-20T08:01:41;18.83;;;8.75;;
54831;SDS011;40730;53.068;6.572;2023-03-20T08:04:06;19.27;;;8.65;;
54831;SDS011;40730;53.068;6.572;2023-03-20T08:06:32;19.25;;;9.13;;
54831;SDS011;40730;53.068;6.572;2023-03-20T08:08:58;15.23;;;9.18;;
54831;SDS011;40730;53.068;6.572;2023-03-20T08:11:23;17.63;;;9.20;;
54831;SDS011;40730;53.068;6.572;2023-03-20T08:13:49;16.33;;;9.07;;
54831;SDS011;40730;53.068;6.572;2023-03-20T08:16:15;16.40;;;9.05;;
54831;SDS011;40730;53.068;6.572;2023-03-20T08:18:40;16.48;;;8.20;;
54831;SDS011;40730;53.068;6.572;2023-03-20T08:21:06;14.95;;;8.27;;
54831;SDS011;40730;53.068;6.572;2023-03-20T08:23:32;14.98;;;8.70;;
54831;SDS011;40730;53.068;6.572;2023-03-20T08:25:58;19.20;;;8.90;;
54831;SDS011;40730;53.068;6.572;2023-03-20T08:28:23;20.40;;;9.23;;
54831;SDS011;40730;53.068;6.572;2023-03-20T08:30:49;17.40;;;9.00;;
54831;SDS011;40730;53.068;6.572;2023-03-20T08:33:16;17.27;;;10.32;;
54831;SDS011;40730;53.068;6.572;2023-03-20T08:35:42;16.63;;;9.13;;
54831;SDS011;40730;53.068;6.572;2023-03-20T08:38:10;21.25;;;8.63;;
54831;SDS011;40730;53.068;6.572;2023-03-20T08:40:40;16.75;;;8.77;;
54831;SDS011;40730;53.068;6.572;2023-03-20T08:43:07;14.52;;;8.93;;
54831;SDS011;40730;53.068;6.572;2023-03-20T08:45:32;15.90;;;8.10;;
54831;SDS011;40730;53.068;6.572;2023-03-20T08:47:58;18.35;;;9.50;;
54831;SDS011;40730;53.068;6.572;2023-03-20T08:50:24;16.48;;;8.80;;
54831;SDS011;40730;53.068;6.572;2023-03-20T08:52:49;17.73;;;9.10;;
54831;SDS011;40730;53.068;6.572;2023-03-20T08:55:15;16.52;;;8.80;;
54831;SDS011;40730;53.068;6.572;2023-03-20T08:57:41;17.40;;;8.70;;
54831;SDS011;40730;53.068;6.572;2023-03-20T09:00:09;18.70;;;9.00;;
54831;SDS011;40730;53.068;6.572;2023-03-20T09:02:37;16.38;;;8.35;;
54831;SDS011;40730;53.068;6.572;2023-03-20T09:05:03;18.65;;;8.35;;
54831;SDS011;40730;53.068;6.572;2023-03-20T09:07:29;15.73;;;8.73;;
54831;SDS011;40730;53.068;6.572;2023-03-20T09:09:55;16.90;;;9.02;;
54831;SDS011;40730;53.068;6.572;2023-03-20T09:12:20;18.63;;;8.57;;
54831;SDS011;40730;53.068;6.572;2023-03-20T09:14:46;16.10;;;9.27;;
54831;SDS011;40730;53.068;6.572;2023-03-20T09:17:12;16.23;;;8.25;;
54831;SDS011;40730;53.068;6.572;2023-03-20T09:19:38;17.55;;;7.90;;
54831;SDS011;40730;53.068;6.572;2023-03-20T09:22:06;13.75;;;7.40;;
54831;SDS011;40730;53.068;6.572;2023-03-20T09:24:32;12.73;;;7.05;;
54831;SDS011;40730;53.068;6.572;2023-03-20T09:26:58;14.10;;;7.15;;
54831;SDS011;40730;53.068;6.572;2023-03-20T09:29:24;17.17;;;7.25;;
54831;SDS011;40730;53.068;6.572;2023-03-20T09:31:51;13.13;;;7.38;;
54831;SDS011;40730;53.068;6.572;2023-03-20T09:34:17;13.20;;;7.03;;
54831;SDS011;40730;53.068;6.572;2023-03-20T09:36:43;12.68;;;6.55;;
54831;SDS011;40730;53.068;6.572;2023-03-20T09:39:08;17.25;;;6.57;;
54831;SDS011;40730;53.068;6.572;2023-03-20T09:41:35;13.35;;;6.63;;
54831;SDS011;40730;53.068;6.572;2023-03-20T09:52:20;14.63;;;6.75;;
54831;SDS011;40730;53.068;6.572;2023-03-20T09:54:50;12.98;;;6.03;;
54831;SDS011;40730;53.068;6.572;2023-03-20T09:57:21;14.57;;;6.15;;
54831;SDS011;40730;53.068;6.572;2023-03-20T09:59:57;13.43;;;6.15;;
54831;SDS011;40730;53.068;6.572;2023-03-20T10:05:05;14.52;;;5.78;;
54831;SDS011;40730;53.068;6.572;2023-03-20T10:07:43;9.98;;;5.85;;
54831;SDS011;40730;53.068;6.572;2023-03-20T10:10:12;14.32;;;6.38;;
54831;SDS011;40730;53.068;6.572;2023-03-20T10:13:00;17.13;;;6.63;;
54831;SDS011;40730;53.068;6.572;2023-03-20T10:15:46;11.65;;;5.20;;
54831;SDS011;40730;53.068;6.572;2023-03-20T10:18:25;13.50;;;6.30;;
54831;SDS011;40730;53.068;6.572;2023-03-20T10:21:05;19.38;;;6.30;;
54831;SDS011;40730;53.068;6.572;2023-03-20T10:26:43;13.98;;;7.18;;
54831;SDS011;40730;53.068;6.572;2023-03-20T10:29:32;15.20;;;6.97;;
54831;SDS011;40730;53.068;6.572;2023-03-20T10:32:28;12.68;;;7.25;;
54831;SDS011;40730;53.068;6.572;2023-03-20T10:35:08;14.13;;;7.05;;
54831;SDS011;40730;53.068;6.572;2023-03-20T10:40:17;13.77;;;6.50;;
54831;SDS011;40730;53.068;6.572;2023-03-20T10:42:54;14.00;;;6.65;;
54831;SDS011;40730;53.068;6.572;2023-03-20T10:45:38;12.50;;;6.72;;
54831;SDS011;40730;53.068;6.572;2023-03-20T10:48:28;13.27;;;7.22;;
54831;SDS011;40730;53.068;6.572;2023-03-20T10:51:00;13.95;;;6.35;;
54831;SDS011;40730;53.068;6.572;2023-03-20T10:53:31;13.10;;;6.50;;
54831;SDS011;40730;53.068;6.572;2023-03-20T10:56:04;15.45;;;6.38;;
54831;SDS011;40730;53.068;6.572;2023-03-20T10:58:34;14.52;;;6.68;;
54831;SDS011;40730;53.068;6.572;2023-03-20T11:01:06;13.48;;;6.18;;
54831;SDS011;40730;53.068;6.572;2023-03-20T11:03:33;16.30;;;5.63;;
54831;SDS011;40730;53.068;6.572;2023-03-20T11:06:19;12.45;;;5.60;;
54831;SDS011;40730;53.068;6.572;2023-03-20T11:08:49;9.65;;;4.50;;
54831;SDS011;40730;53.068;6.572;2023-03-20T11:11:27;11.93;;;5.45;;
54831;SDS011;40730;53.068;6.572;2023-03-20T11:13:58;7.63;;;4.35;;
54831;SDS011;40730;53.068;6.572;2023-03-20T11:16:54;13.13;;;3.08;;
54831;SDS011;40730;53.068;6.572;2023-03-20T11:19:21;8.00;;;2.53;;
54831;SDS011;40730;53.068;6.572;2023-03-20T11:21:53;7.50;;;2.42;;
54831;SDS011;40730;53.068;6.572;2023-03-20T11:24:25;10.70;;;2.40;;
54831;SDS011;40730;53.068;6.572;2023-03-20T11:26:51;8.85;;;2.13;;
54831;SDS011;40730;53.068;6.572;2023-03-20T11:29:39;7.95;;;2.47;;
54831;SDS011;40730;53.068;6.572;2023-03-20T11:34:55;7.47;;;2.35;;
54831;SDS011;40730;53.068;6.572;2023-03-20T11:39:57;6.60;;;2.70;;
54831;SDS011;40730;53.068;6.572;2023-03-20T11:45:44;8.82;;;3.15;;
54831;SDS011;40730;53.068;6.572;2023-03-20T11:48:19;8.52;;;2.42;;
54831;SDS011;40730;53.068;6.572;2023-03-20T11:50:58;13.15;;;2.70;;
54831;SDS011;40730;53.068;6.572;2023-03-20T11:53:30;12.48;;;3.60;;
54831;SDS011;40730;53.068;6.572;2023-03-20T12:04:15;7.03;;;1.83;;
54831;SDS011;40730;53.068;6.572;2023-03-20T12:07:24;9.18;;;2.45;;
54831;SDS011;40730;53.068;6.572;2023-03-20T12:09:52;8.00;;;2.00;;
54831;SDS011;40730;53.068;6.572;2023-03-20T12:15:21;9.35;;;2.20;;
54831;SDS011;40730;53.068;6.572;2023-03-20T12:28:10;5.68;;;2.08;;
54831;SDS011;40730;53.068;6.572;2023-03-20T12:33:35;7.20;;;2.25;;
54831;SDS011;40730;53.068;6.572;2023-03-20T12:36:07;6.07;;;3.03;;
54831;SDS011;40730;53.068;6.572;2023-03-20T12:38:40;6.88;;;1.63;;
54831;SDS011;40730;53.068;6.572;2023-03-20T12:41:11;3.53;;;1.10;;
54831;SDS011;40730;53.068;6.572;2023-03-20T12:49:21;7.43;;;1.73;;
54831;SDS011;40730;53.068;6.572;2023-03-20T12:52:05;4.00;;;1.73;;
54831;SDS011;40730;53.068;6.572;2023-03-20T13:14:22;8.70;;;4.05;;
54831;SDS011;40730;53.068;6.572;2023-03-20T13:19:34;11.73;;;5.03;;
54831;SDS011;40730;53.068;6.572;2023-03-20T13:22:05;8.15;;;4.85;;
54831;SDS011;40730;53.068;6.572;2023-03-20T13:29:59;9.02;;;5.47;;
54831;SDS011;40730;53.068;6.572;2023-03-20T13:33:05;6.60;;;4.60;;
54831;SDS011;40730;53.068;6.572;2023-03-20T13:38:56;14.30;;;7.18;;
54831;SDS011;40730;53.068;6.572;2023-03-20T13:41:26;12.13;;;7.20;;
54831;SDS011;40730;53.068;6.572;2023-03-20T13:43:53;11.27;;;6.47;;
54831;SDS011;40730;53.068;6.572;2023-03-20T13:46:23;13.27;;;6.75;;
54831;SDS011;40730;53.068;6.572;2023-03-20T13:48:53;13.00;;;7.22;;
54831;SDS011;40730;53.068;6.572;2023-03-20T13:51:46;11.30;;;7.25;;
54831;SDS011;40730;53.068;6.572;2023-03-20T13:54:36;16.48;;;6.78;;
54831;SDS011;40730;53.068;6.572;2023-03-20T14:05:23;11.57;;;6.53;;
54831;SDS011;40730;53.068;6.572;2023-03-20T14:07:56;13.73;;;7.75;;
54831;SDS011;40730;53.068;6.572;2023-03-20T14:12:54;14.20;;;8.10;;
54831;SDS011;40730;53.068;6.572;2023-03-20T14:15:26;14.48;;;8.85;;
54831;SDS011;40730;53.068;6.572;2023-03-20T14:17:55;13.60;;;8.23;;
54831;SDS011;40730;53.068;6.572;2023-03-20T14:20:28;12.38;;;8.77;;
54831;SDS011;40730;53.068;6.572;2023-03-20T14:22:58;14.57;;;8.30;;
54831;SDS011;40730;53.068;6.572;2023-03-20T14:25:24;11.88;;;9.13;;
54831;SDS011;40730;53.068;6.572;2023-03-20T14:27:53;12.48;;;9.80;;
54831;SDS011;40730;53.068;6.572;2023-03-20T14:33:04;16.23;;;10.95;;
54831;SDS011;40730;53.068;6.572;2023-03-20T14:35:38;18.20;;;9.98;;
54831;SDS011;40730;53.068;6.572;2023-03-20T14:38:14;19.42;;;10.38;;
54831;SDS011;40730;53.068;6.572;2023-03-20T14:46:19;17.95;;;11.05;;
54831;SDS011;40730;53.068;6.572;2023-03-20T14:49:23;20.13;;;12.17;;
54831;SDS011;40730;53.068;6.572;2023-03-20T14:51:55;18.58;;;12.43;;
54831;SDS011;40730;53.068;6.572;2023-03-20T14:54:27;25.48;;;13.95;;
54831;SDS011;40730;53.068;6.572;2023-03-20T14:56:54;20.25;;;12.40;;
54831;SDS011;40730;53.068;6.572;2023-03-20T14:59:21;20.23;;;14.20;;
54831;SDS011;40730;53.068;6.572;2023-03-20T15:04:41;23.45;;;14.63;;
54831;SDS011;40730;53.068;6.572;2023-03-20T15:07:16;21.27;;;13.88;;
54831;SDS011;40730;53.068;6.572;2023-03-20T15:09:50;18.90;;;12.98;;
54831;SDS011;40730;53.068;6.572;2023-03-20T15:12:19;21.40;;;15.10;;
54831;SDS011;40730;53.068;6.572;2023-03-20T15:17:23;20.08;;;14.20;;
54831;SDS011;40730;53.068;6.572;2023-03-20T15:19:58;21.83;;;14.60;;
54831;SDS011;40730;53.068;6.572;2023-03-20T15:22:26;17.10;;;14.13;;
54831;SDS011;40730;53.068;6.572;2023-03-20T15:24:52;25.05;;;15.82;;
54831;SDS011;40730;53.068;6.572;2023-03-20T15:27:20;19.80;;;15.00;;
54831;SDS011;40730;53.068;6.572;2023-03-20T15:29:49;22.50;;;14.68;;
54831;SDS011;40730;53.068;6.572;2023-03-20T15:32:16;22.52;;;14.23;;
54831;SDS011;40730;53.068;6.572;2023-03-20T15:34:44;18.67;;;13.70;;
54831;SDS011;40730;53.068;6.572;2023-03-20T15:37:14;19.63;;;12.50;;
54831;SDS011;40730;53.068;6.572;2023-03-20T15:39:43;20.10;;;14.32;;
54831;SDS011;40730;53.068;6.572;2023-03-20T15:42:12;21.33;;;14.63;;
54831;SDS011;40730;53.068;6.572;2023-03-20T15:44:42;21.73;;;16.05;;
54831;SDS011;40730;53.068;6.572;2023-03-20T15:49:36;19.45;;;13.75;;
54831;SDS011;40730;53.068;6.572;2023-03-20T15:52:20;16.30;;;13.10;;
54831;SDS011;40730;53.068;6.572;2023-03-20T15:54:59;16.90;;;12.05;;
54831;SDS011;40730;53.068;6.572;2023-03-20T15:57:32;20.65;;;13.02;;
54831;SDS011;40730;53.068;6.572;2023-03-20T16:00:00;18.70;;;13.68;;
54831;SDS011;40730;53.068;6.572;2023-03-20T16:02:28;21.27;;;14.15;;
54831;SDS011;40730;53.068;6.572;2023-03-20T16:04:54;22.48;;;13.98;;
54831;SDS011;40730;53.068;6.572;2023-03-20T16:07:21;21.10;;;13.75;;
54831;SDS011;40730;53.068;6.572;2023-03-20T16:09:51;20.33;;;13.27;;
54831;SDS011;40730;53.068;6.572;2023-03-20T16:12:17;19.02;;;13.88;;
54831;SDS011;40730;53.068;6.572;2023-03-20T16:14:44;21.50;;;13.93;;
54831;SDS011;40730;53.068;6.572;2023-03-20T16:17:12;18.30;;;13.63;;
54831;SDS011;40730;53.068;6.572;2023-03-20T16:19:40;19.95;;;12.98;;
54831;SDS011;40730;53.068;6.572;2023-03-20T16:22:20;22.40;;;13.60;;
54831;SDS011;40730;53.068;6.572;2023-03-20T16:24:49;23.25;;;13.73;;
54831;SDS011;40730;53.068;6.572;2023-03-20T16:27:26;21.52;;;15.15;;
54831;SDS011;40730;53.068;6.572;2023-03-20T16:30:02;23.77;;;14.85;;
54831;SDS011;40730;53.068;6.572;2023-03-20T16:32:37;21.58;;;14.80;;
54831;SDS011;40730;53.068;6.572;2023-03-20T16:35:12;26.13;;;16.52;;
54831;SDS011;40730;53.068;6.572;2023-03-20T16:37:49;21.63;;;13.93;;
54831;SDS011;40730;53.068;6.572;2023-03-20T16:40:22;27.05;;;16.45;;
54831;SDS011;40730;53.068;6.572;2023-03-20T16:43:01;23.23;;;15.85;;
54831;SDS011;40730;53.068;6.572;2023-03-20T16:45:35;27.48;;;16.90;;
54831;SDS011;40730;53.068;6.572;2023-03-20T16:48:44;27.05;;;18.40;;
54831;SDS011;40730;53.068;6.572;2023-03-20T16:51:21;27.63;;;17.65;;
54831;SDS011;40730;53.068;6.572;2023-03-20T16:54:17;29.27;;;18.77;;
54831;SDS011;40730;53.068;6.572;2023-03-20T16:57:46;30.05;;;19.08;;
54831;SDS011;40730;53.068;6.572;2023-03-20T17:04:16;33.17;;;19.08;;
54831;SDS011;40730;53.068;6.572;2023-03-20T17:07:17;32.00;;;18.05;;
54831;SDS011;40730;53.068;6.572;2023-03-20T17:20:40;38.55;;;21.75;;
54831;SDS011;40730;53.068;6.572;2023-03-20T17:23:23;34.72;;;20.10;;
54831;SDS011;40730;53.068;6.572;2023-03-20T17:25:52;39.33;;;22.85;;
54831;SDS011;40730;53.068;6.572;2023-03-20T17:28:22;34.10;;;20.50;;
54831;SDS011;40730;53.068;6.572;2023-03-20T17:31:00;36.08;;;20.00;;
54831;SDS011;40730;53.068;6.572;2023-03-20T17:33:53;33.90;;;20.25;;
54831;SDS011;40730;53.068;6.572;2023-03-20T17:40:19;37.40;;;20.90;;
54831;SDS011;40730;53.068;6.572;2023-03-20T17:43:38;39.42;;;22.30;;